Time;durP1;ratioP1;P1;durP2;ratioP2;P2;SDS_P1;SDS_P2;PMS_P1;PMS_P2;Temp;Humidity;BMP_temperature;BMP_pressure;BME280_temperature;BME280_humidity;BME280_pressure;Samples;Min_cycle;Max_cycle;Signal;HPM_P1;HPM_P2
2023/08/01 00:06:55;;;;;;;1.00;0.90;;;;;;;;;;4947927;28;20051;-76
2023/08/01 00:10:17;;;;;;;;;;;;;;;;;;;;;
2023/08/01 00:27:32;;;;;;;;;;;;;;;;;;;;;
2023/08/01 00:38:21;;;;;;;;;;;;;;;;;;;;;
2023/08/01 00:45:09;;;;;;;2.05;1.13;;;;;;;;;;4911629;29;20028;-75
2023/08/01 00:52:04;;;;;;;1.45;1.35;;;;;;;;;;5046053;22;20821;-75
2023/08/01 00:55:50;;;;;;;;;;;;;;;;;;;;;
2023/08/01 00:58:55;;;;;;;1.55;1.00;;;;;;;;;;4875135;29;20052;-75
2023/08/01 01:11:16;;;;;;;0.95;0.80;;;;;;;;;;5188749;22;20427;-75
2023/08/01 01:13:42;;;;;;;2.55;0.90;;;;;;;;;;5020030;28;20481;-75
2023/08/01 01:16:07;;;;;;;2.72;0.98;;;;;;;;;;5016978;28;20032;-75
2023/08/01 01:18:33;;;;;;;1.08;0.80;;;;;;;;;;5016764;28;20120;-75
2023/08/01 01:38:11;;;;;;;;;;;;;;;;;;4957041;28;20094;-76
2023/08/01 01:40:37;;;;;;;1.02;0.68;;;;;;;;;;4961747;28;19918;-75
2023/08/01 01:43:02;;;;;;;0.82;0.68;;;;;;;;;;4972071;28;20043;-74
2023/08/01 01:45:28;;;;;;;0.98;0.60;;;;;;;;;;5049032;28;20047;-74
2023/08/01 01:47:53;;;;;;;0.80;0.80;;;;;;;;;;5049039;28;20036;-74
2023/08/01 02:19:14;;;;;;;0.68;0.60;;;;;;;;;;4924404;29;20079;-75
2023/08/01 02:23:36;;;;;;;1.42;1.13;;;;;;;;;;4863306;29;20203;-75
2023/08/01 02:26:16;;;;;;;0.75;0.50;;;;;;;;;;4863521;29;20043;-76
2023/08/01 02:29:02;;;;;;;0.95;0.60;;;;;;;;;;4997934;28;20091;-76
2023/08/01 02:39:34;;;;;;;0.57;0.57;;;;;;;;;;4982530;28;20045;-75
2023/08/01 19:55:00;;;;;;;1.85;1.15;;;;;;;;;;5003867;28;20096;-78
2023/08/01 19:57:27;;;;;;;2.15;1.33;;;;;;;;;;5003315;28;20588;-78
2023/08/01 19:59:52;;;;;;;1.77;1.55;;;;;;;;;;5001594;28;20029;-80
2023/08/01 20:02:18;;;;;;;1.48;1.33;;;;;;;;;;4973653;28;20088;-79
2023/08/01 20:04:43;;;;;;;5.05;1.85;;;;;;;;;;4993160;28;20038;-78
2023/08/01 20:07:09;;;;;;;4.03;2.80;;;;;;;;;;4988852;28;20017;-79
2023/08/01 20:09:34;;;;;;;2.70;1.63;;;;;;;;;;4986254;28;20046;-79
2023/08/01 20:11:59;;;;;;;2.70;1.67;;;;;;;;;;4965121;28;20368;-79
2023/08/01 20:14:25;;;;;;;2.47;1.48;;;;;;;;;;4986357;28;20054;-79
2023/08/01 20:16:50;;;;;;;1.58;1.33;;;;;;;;;;4988825;28;20030;-79
2023/08/01 20:19:16;;;;;;;2.90;1.80;;;;;;;;;;4988029;28;20362;-79
2023/08/01 20:21:41;;;;;;;3.40;1.70;;;;;;;;;;4974949;28;20034;-79
2023/08/01 20:24:07;;;;;;;2.55;1.50;;;;;;;;;;4988520;28;20029;-79
2023/08/01 20:26:32;;;;;;;1.80;1.38;;;;;;;;;;4986542;28;20119;-79
2023/08/01 20:28:58;;;;;;;2.63;1.85;;;;;;;;;;4986777;28;20034;-79
2023/08/01 20:31:24;;;;;;;1.95;1.40;;;;;;;;;;4991366;28;20320;-79
2023/08/01 20:33:49;;;;;;;1.83;1.50;;;;;;;;;;4993651;28;20033;-79
2023/08/01 20:36:14;;;;;;;2.95;1.80;;;;;;;;;;4987008;28;20402;-80
2023/08/01 20:38:40;;;;;;;3.08;1.30;;;;;;;;;;4988708;28;20061;-80
2023/08/01 20:41:13;;;;;;;3.20;1.70;;;;;;;;;;4986937;28;20034;-79
2023/08/01 20:43:38;;;;;;;3.17;1.70;;;;;;;;;;4988448;28;20034;-79
2023/08/01 20:46:04;;;;;;;3.13;1.73;;;;;;;;;;4987707;28;20029;-79
2023/08/01 20:48:29;;;;;;;3.22;1.83;;;;;;;;;;4971442;28;20038;-79
2023/08/01 20:50:55;;;;;;;3.55;1.90;;;;;;;;;;4985222;28;20650;-77
2023/08/01 20:53:20;;;;;;;1.60;1.40;;;;;;;;;;4986215;28;20034;-77
2023/08/01 20:55:45;;;;;;;2.47;1.92;;;;;;;;;;4963796;28;20034;-77
2023/08/01 20:58:11;;;;;;;2.05;1.85;;;;;;;;;;4984586;28;20482;-77
2023/08/01 21:00:36;;;;;;;2.35;1.65;;;;;;;;;;4969562;28;20397;-77
2023/08/01 21:03:02;;;;;;;2.20;1.48;;;;;;;;;;4971563;28;20032;-77
2023/08/01 21:05:27;;;;;;;2.85;1.73;;;;;;;;;;4986094;28;20482;-77
2023/08/01 21:07:52;;;;;;;2.00;1.63;;;;;;;;;;4984011;28;20029;-77
2023/08/01 21:10:18;;;;;;;2.17;1.55;;;;;;;;;;4982244;28;20109;-77
2023/08/01 21:12:43;;;;;;;4.30;1.80;;;;;;;;;;4987125;28;20030;-77
2023/08/01 21:15:09;;;;;;;3.08;2.10;;;;;;;;;;4981233;28;20038;-76
2023/08/01 21:17:34;;;;;;;2.20;1.88;;;;;;;;;;4975128;28;20036;-77
2023/08/01 21:19:59;;;;;;;2.58;1.75;;;;;;;;;;4979974;28;20029;-77
2023/08/01 21:22:25;;;;;;;2.08;1.52;;;;;;;;;;4978889;28;21108;-77
2023/08/01 21:24:50;;;;;;;1.73;1.33;;;;;;;;;;4979161;28;20538;-78
2023/08/01 21:27:16;;;;;;;4.03;1.75;;;;;;;;;;4980582;28;20076;-77
2023/08/01 21:29:41;;;;;;;3.40;1.80;;;;;;;;;;4971969;28;20030;-77
2023/08/01 21:32:07;;;;;;;1.52;1.42;;;;;;;;;;4979911;28;20030;-76
2023/08/01 21:34:33;;;;;;;8.15;2.42;;;;;;;;;;4989134;28;20387;-77
2023/08/01 21:36:58;;;;;;;2.00;1.80;;;;;;;;;;4960573;28;20033;-77
2023/08/01 21:39:24;;;;;;;3.30;2.00;;;;;;;;;;4960724;28;20022;-76
2023/08/01 21:41:49;;;;;;;2.60;1.73;;;;;;;;;;4979079;28;20038;-76
2023/08/01 21:44:14;;;;;;;2.35;1.70;;;;;;;;;;4965333;28;20074;-76
2023/08/01 21:46:40;;;;;;;4.03;2.10;;;;;;;;;;4946129;28;20029;-76
2023/08/01 21:49:05;;;;;;;1.75;1.48;;;;;;;;;;4979307;28;20530;-77
2023/08/01 21:51:31;;;;;;;1.63;1.52;;;;;;;;;;4960932;28;20058;-77
2023/08/01 21:53:57;;;;;;;1.80;1.67;;;;;;;;;;4984837;28;20533;-76
2023/08/01 21:56:22;;;;;;;2.70;2.05;;;;;;;;;;5007512;28;20030;-76
2023/08/01 21:58:48;;;;;;;2.35;1.50;;;;;;;;;;5006276;28;20032;-76
2023/08/01 22:01:13;;;;;;;3.28;2.30;;;;;;;;;;5007097;28;20033;-76
2023/08/01 22:03:39;;;;;;;3.08;1.95;;;;;;;;;;5006767;28;20124;-77
2023/08/01 22:06:05;;;;;;;3.90;1.92;;;;;;;;;;4988142;28;20040;-77
2023/08/01 22:08:30;;;;;;;3.50;2.00;;;;;;;;;;5009836;28;20030;-77
2023/08/01 22:10:57;;;;;;;2.72;2.22;;;;;;;;;;5009378;28;20030;-76
2023/08/01 22:13:23;;;;;;;1.65;1.55;;;;;;;;;;4990933;28;20665;-77
2023/08/01 22:15:50;;;;;;;3.72;2.40;;;;;;;;;;5009082;28;20029;-77
2023/08/01 22:18:25;;;;;;;2.85;2.08;;;;;;;;;;5007695;28;20101;-77
2023/08/01 22:20:56;;;;;;;1.83;1.50;;;;;;;;;;4986333;28;20056;-77
2023/08/01 22:23:22;;;;;;;1.88;1.77;;;;;;;;;;5016767;28;20030;-77
2023/08/01 22:25:48;;;;;;;1.92;1.65;;;;;;;;;;5011473;28;20049;-77
2023/08/01 22:28:16;;;;;;;2.00;1.80;;;;;;;;;;4991053;28;20039;-77
2023/08/01 22:30:41;;;;;;;3.92;1.98;;;;;;;;;;5009560;28;20036;-77
2023/08/01 22:33:06;;;;;;;1.92;1.50;;;;;;;;;;4858218;28;20050;-77
2023/08/01 22:35:32;;;;;;;2.65;1.75;;;;;;;;;;5007849;28;20470;-77
2023/08/01 22:37:58;;;;;;;3.67;1.85;;;;;;;;;;5014025;28;20021;-77
2023/08/01 22:40:24;;;;;;;1.80;1.70;;;;;;;;;;5029187;28;20037;-77
2023/08/01 22:42:49;;;;;;;1.92;1.77;;;;;;;;;;5024974;22;20762;-76
2023/08/01 22:45:15;;;;;;;2.85;1.80;;;;;;;;;;5028868;28;20031;-76
2023/08/01 22:47:40;;;;;;;2.03;1.60;;;;;;;;;;5030324;28;20032;-76
2023/08/01 22:50:07;;;;;;;1.95;1.67;;;;;;;;;;5028837;28;20025;-76
2023/08/01 22:52:32;;;;;;;4.93;1.90;;;;;;;;;;5028070;28;20171;-75
2023/08/01 22:54:58;;;;;;;4.47;2.10;;;;;;;;;;5025291;28;20132;-75
2023/08/01 22:57:23;;;;;;;2.33;1.73;;;;;;;;;;5019853;28;20018;-75
2023/08/01 22:59:48;;;;;;;2.17;1.58;;;;;;;;;;5032065;28;20033;-76
2023/08/01 23:02:14;;;;;;;2.17;1.63;;;;;;;;;;5028944;28;20036;-75
2023/08/01 23:04:39;;;;;;;1.80;1.70;;;;;;;;;;5010582;28;20521;-75
2023/08/01 23:07:05;;;;;;;2.35;1.60;;;;;;;;;;5032159;28;20027;-75
2023/08/01 23:09:31;;;;;;;2.55;1.45;;;;;;;;;;5031944;28;20095;-75
2023/08/01 23:11:57;;;;;;;3.10;1.75;;;;;;;;;;5034060;28;20025;-75
2023/08/01 23:14:22;;;;;;;1.42;1.33;;;;;;;;;;5027900;28;20018;-75
2023/08/01 23:16:47;;;;;;;2.15;1.52;;;;;;;;;;5027906;28;20025;-76
2023/08/01 23:19:13;;;;;;;2.92;1.35;;;;;;;;;;5020886;28;20459;-76
2023/08/01 23:21:38;;;;;;;1.92;1.55;;;;;;;;;;5026109;28;20032;-75
2023/08/01 23:24:04;;;;;;;2.17;1.65;;;;;;;;;;5030935;28;20016;-75
2023/08/01 23:26:29;;;;;;;4.47;1.80;;;;;;;;;;5029325;28;20029;-76
2023/08/01 23:28:54;;;;;;;6.38;1.95;;;;;;;;;;5025181;28;20037;-76
2023/08/01 23:31:20;;;;;;;2.08;1.77;;;;;;;;;;5031161;28;20041;-75
2023/08/01 23:33:45;;;;;;;2.40;1.50;;;;;;;;;;5022504;28;20542;-75
2023/08/01 23:36:10;;;;;;;2.92;1.60;;;;;;;;;;5031424;28;20025;-76
2023/08/01 23:38:36;;;;;;;1.63;1.45;;;;;;;;;;5028657;28;20100;-76
2023/08/01 23:41:10;;;;;;;3.15;1.60;;;;;;;;;;5030987;28;20026;-75
2023/08/01 23:43:35;;;;;;;1.38;1.27;;;;;;;;;;5036716;28;20021;-75
2023/08/01 23:46:01;;;;;;;2.13;1.73;;;;;;;;;;5029860;28;20545;-76
2023/08/01 23:48:26;;;;;;;2.90;1.42;;;;;;;;;;5004092;28;20033;-76
2023/08/01 23:50:51;;;;;;;2.28;1.40;;;;;;;;;;5032695;28;20024;-75
2023/08/01 23:53:17;;;;;;;2.80;1.58;;;;;;;;;;5031536;28;20680;-75
2023/08/01 23:55:43;;;;;;;2.40;1.40;;;;;;;;;;5013139;28;20079;-76
2023/08/01 23:58:09;;;;;;;2.67;1.63;;;;;;;;;;5016420;28;20048;-75
